Dry Fork, Utah
Current Conditions -  °F | °C
As of 4:53 PM on Sunday 23 Nov 2014 (Local Time) from KVEL Reporting Station
Clear Clear  
Wind Chill: 25°   Ceiling: Unl
Heat Index: 35°   Visibility: 10mi
Dew Point:   Wind: 17mph
Humidity: 30%   Direction: 320°NW
Pressure: 30.05"   Gusts: 25mph
Location:  40.1055°N, 109.498°W
Report Text: KVEL 232353Z AUTO 32015G22KT 10SM CLR 02/M14 A3005 RMK AO2 PK WND 32031/2301 SLP190 T00171144 10056 20017 53010
Loading
Personal Weather Stations






























Interactive Weather Map New forecast layout! Learn more

10-Day Weather Forecast

Advertisements
Track Severe Weather on mobile